General Aviation Weather

Text Reports

Enter one or more of the following location identifiers separated by a space:

Zip Code, Four-Character ICAO or Three-Character IATA airport codes.

METAR - Aviation Routine Weather Report
KCOT - Cotulla, Texas
Updated at 1:53 AM GMT on August 05, 2015 (8:53 PM CDT):
METAR KCOT 050153Z AUTO 14015G23KT 10SM FEW085 34/23 A2987 RMK AO2 PK WND 14027/0139 SLP104 T03390228
TAF - Terminal Area Forecast
KCOT - Cotulla, Texas
Updated at 1:53 AM GMT on August 05, 2015 (8:53 PM CDT):
No TAF is currently available for this location.
Decoded:
No decoded TAF is available.
PIREP - Pilot Weather Report
KCOT - Cotulla, Texas
Updated at 1:53 AM GMT on August 05, 2015 (8:53 PM CDT):
No PIREP is currently available for this location.
AIRMET - Airmens Meteorological Information
KCOT - Cotulla, Texas
Updated at 1:53 AM GMT on August 05, 2015 (8:53 PM CDT):
No AIRMET is currently available for this location.
SIGMET - Significant Meteorological Information
KCOT - Cotulla, Texas
Updated at 1:53 AM GMT on August 05, 2015 (8:53 PM CDT):
No SIGMET is currently available for this location.
NOTAM - Notice to Airmen
KCOT - Cotulla, Texas
Updated at 1:53 AM GMT on August 05, 2015 (8:53 PM CDT):
No NOTAM is currently available for this location.
Forecast Area
KCOT - Cotulla, Texas
Updated at 1:53 AM GMT on August 05, 2015 (8:53 PM CDT):
No NOTAM is currently available for this location.
Aviation Weather Maps